createdAt,value
2019-05-12T00:00:11.743Z,1019.38
2019-05-12T00:01:11.728Z,1019.45
2019-05-12T00:02:11.721Z,1019.42
2019-05-12T00:03:11.720Z,1019.43
2019-05-12T00:04:11.728Z,1019.52
2019-05-12T00:05:11.689Z,1019.49
2019-05-12T00:06:11.676Z,1019.52
2019-05-12T00:07:11.679Z,1019.58
2019-05-12T00:08:11.658Z,1019.59
2019-05-12T00:09:11.668Z,1019.60
2019-05-12T00:10:11.632Z,1019.60
2019-05-12T00:11:11.622Z,1019.65
2019-05-12T00:12:11.612Z,1019.62
2019-05-12T00:13:11.597Z,1019.65
2019-05-12T00:14:11.619Z,1019.66
2019-05-12T00:15:11.576Z,1019.68
2019-05-12T00:16:11.569Z,1019.70
2019-05-12T00:17:11.554Z,1019.74
2019-05-12T00:18:11.541Z,1019.78
2019-05-12T00:19:11.555Z,1019.81
2019-05-12T00:20:11.526Z,1019.80
2019-05-12T00:21:11.507Z,1019.83
2019-05-12T00:22:11.498Z,1019.86
2019-05-12T00:23:23.698Z,1019.81
2019-05-12T00:24:12.516Z,1019.80
2019-05-12T00:25:11.463Z,1019.84
2019-05-12T00:26:11.453Z,1019.82
2019-05-12T00:27:11.455Z,1019.85
2019-05-12T00:28:11.430Z,1019.81
2019-05-12T00:29:11.486Z,1019.85
2019-05-12T00:30:11.464Z,1019.83
2019-05-12T00:31:11.397Z,1019.88
2019-05-12T00:32:11.401Z,1019.87
2019-05-12T00:33:11.380Z,1019.86
2019-05-12T00:34:11.365Z,1019.92
2019-05-12T00:35:11.382Z,1019.92
2019-05-12T00:36:11.343Z,1019.91
2019-05-12T00:37:11.343Z,1019.93
2019-05-12T00:38:11.322Z,1019.95
2019-05-12T00:39:11.313Z,1019.96
2019-05-12T00:40:11.325Z,1019.96
2019-05-12T00:41:11.287Z,1019.89
2019-05-12T00:42:11.279Z,1019.88
2019-05-12T00:43:11.263Z,1019.93
2019-05-12T00:44:11.262Z,1019.90
2019-05-12T00:45:11.270Z,1020.01
2019-05-12T00:46:11.231Z,1020.02
2019-05-12T00:47:11.221Z,1020.01
2019-05-12T00:48:11.218Z,1020.04
2019-05-12T00:49:11.202Z,1020.06
2019-05-12T00:50:11.219Z,1020.08
2019-05-12T00:51:11.178Z,1020.12
2019-05-12T00:52:11.165Z,1020.17
2019-05-12T00:53:11.152Z,1020.21
2019-05-12T00:54:11.148Z,1020.21
2019-05-12T00:55:11.185Z,1020.26
2019-05-12T00:56:11.128Z,1020.28
2019-05-12T00:57:11.109Z,1020.32
2019-05-12T00:58:11.098Z,1020.36
2019-05-12T00:59:11.087Z,1020.40
2019-05-12T01:00:11.079Z,1020.39
2019-05-12T01:01:11.089Z,1020.40
2019-05-12T01:02:11.063Z,1020.38
2019-05-12T01:03:11.047Z,1020.39
2019-05-12T01:04:11.032Z,1020.40
2019-05-12T01:05:11.024Z,1020.40
2019-05-12T01:06:11.037Z,1020.43
2019-05-12T01:07:10.999Z,1020.43
2019-05-12T01:08:10.994Z,1020.43
2019-05-12T01:09:10.977Z,1020.44
2019-05-12T01:10:10.965Z,1020.48
2019-05-12T01:11:10.981Z,1020.48
2019-05-12T01:12:10.943Z,1020.47
2019-05-12T01:13:10.931Z,1020.55
2019-05-12T01:14:10.919Z,1020.53
2019-05-12T01:15:10.909Z,1020.56
2019-05-12T01:16:10.944Z,1020.57
2019-05-12T01:17:10.887Z,1020.64
2019-05-12T01:18:10.878Z,1020.66
2019-05-12T01:19:10.863Z,1020.67
2019-05-12T01:20:10.856Z,1020.66
2019-05-12T01:21:10.869Z,1020.69
2019-05-12T01:22:10.834Z,1020.63
2019-05-12T01:23:10.820Z,1020.71
2019-05-12T01:24:10.810Z,1020.67
2019-05-12T01:25:10.797Z,1020.67
2019-05-12T01:26:10.825Z,1020.73
2019-05-12T01:27:10.776Z,1020.72
2019-05-12T01:28:10.778Z,1020.75
2019-05-12T01:29:10.752Z,1020.78
2019-05-12T01:30:10.744Z,1020.80
2019-05-12T01:31:10.758Z,1020.85
2019-05-12T01:32:10.718Z,1020.88
2019-05-12T01:33:10.715Z,1020.88
2019-05-12T01:34:10.697Z,1020.88
2019-05-12T01:35:10.703Z,1020.88
2019-05-12T01:36:10.703Z,1020.92
2019-05-12T01:37:10.668Z,1020.96
2019-05-12T01:38:10.651Z,1020.97
2019-05-12T01:39:10.639Z,1020.99
2019-05-12T01:40:10.631Z,1021.00
2019-05-12T01:41:10.637Z,1021.02
2019-05-12T01:42:10.633Z,1021.02
2019-05-12T01:43:10.596Z,1021.04
2019-05-12T01:44:10.586Z,1021.05
2019-05-12T01:45:10.575Z,1021.06
2019-05-12T01:46:10.563Z,1021.08
2019-05-12T01:47:10.578Z,1021.08
2019-05-12T01:48:10.541Z,1021.11
2019-05-12T01:49:10.546Z,1021.08
2019-05-12T01:50:10.523Z,1021.14
2019-05-12T01:51:10.516Z,1021.13
2019-05-12T01:52:10.523Z,1021.11
2019-05-12T01:53:10.480Z,1021.12
2019-05-12T01:54:14.857Z,1021.15
2019-05-12T01:55:10.458Z,1021.10
2019-05-12T01:56:10.454Z,1021.13
2019-05-12T01:57:10.461Z,1021.19
2019-05-12T01:58:10.423Z,1021.18
2019-05-12T01:59:10.414Z,1021.24
2019-05-12T02:00:10.406Z,1021.24
2019-05-12T02:01:10.390Z,1021.30
2019-05-12T02:02:10.403Z,1021.33
2019-05-12T02:03:10.367Z,1021.34
2019-05-12T02:04:10.358Z,1021.39
2019-05-12T02:05:10.346Z,1021.37
2019-05-12T02:06:10.332Z,1021.42
2019-05-12T02:07:10.351Z,1021.42
2019-05-12T02:08:10.314Z,1021.45
2019-05-12T02:09:10.300Z,1021.46
2019-05-12T02:10:10.298Z,1021.47
2019-05-12T02:11:10.293Z,1021.50
2019-05-12T02:12:10.292Z,1021.52
2019-05-12T02:13:10.260Z,1021.51
2019-05-12T02:14:10.271Z,1021.53
2019-05-12T02:15:10.232Z,1021.54
2019-05-12T02:16:10.225Z,1021.52
2019-05-12T02:17:10.237Z,1021.53
2019-05-12T02:18:10.203Z,1021.55
2019-05-12T02:19:10.202Z,1021.52
2019-05-12T02:20:10.176Z,1021.50
2019-05-12T02:21:10.165Z,1021.52
2019-05-12T02:22:10.160Z,1021.55
2019-05-12T02:23:10.175Z,1021.55
2019-05-12T02:24:23.340Z,1021.54
2019-05-12T02:25:11.121Z,1021.57
2019-05-12T02:26:10.110Z,1021.62
2019-05-12T02:27:10.121Z,1021.69
2019-05-12T02:28:10.113Z,1021.69
2019-05-12T02:29:10.085Z,1021.74
2019-05-12T02:30:10.442Z,1021.76
2019-05-12T02:31:10.055Z,1021.77
2019-05-12T02:32:10.048Z,1021.76
2019-05-12T02:33:10.064Z,1021.78
2019-05-12T02:34:10.023Z,1021.81
2019-05-12T02:35:10.014Z,1021.83
2019-05-12T02:36:09.997Z,1021.77
2019-05-12T02:37:09.991Z,1021.82
2019-05-12T02:38:10.019Z,1021.81
2019-05-12T02:39:09.969Z,1021.83
2019-05-12T02:40:09.956Z,1021.81
2019-05-12T02:41:09.948Z,1021.82
2019-05-12T02:42:09.950Z,1021.91
2019-05-12T02:43:09.951Z,1021.89
2019-05-12T02:44:09.912Z,1021.92
2019-05-12T02:45:09.904Z,1021.94
2019-05-12T02:46:09.888Z,1021.95
2019-05-12T02:47:09.883Z,1021.99
2019-05-12T02:48:09.899Z,1022.05
2019-05-12T02:49:09.861Z,1022.02
2019-05-12T02:50:09.846Z,1022.04
2019-05-12T02:51:09.840Z,1022.07
2019-05-12T02:52:09.827Z,1022.02
2019-05-12T02:53:09.836Z,1022.04
2019-05-12T02:54:09.800Z,1022.07
2019-05-12T02:55:09.788Z,1022.12
2019-05-12T02:56:09.810Z,1022.07
2019-05-12T02:57:09.769Z,1022.07
2019-05-12T02:58:09.761Z,1022.08
2019-05-12T02:59:09.769Z,1022.11
2019-05-12T03:00:09.751Z,1022.05
2019-05-12T03:01:09.727Z,1022.10
2019-05-12T03:02:09.709Z,1022.12
2019-05-12T03:03:09.703Z,1022.10
2019-05-12T03:04:09.719Z,1022.13
2019-05-12T03:05:09.674Z,1022.14
2019-05-12T03:06:09.668Z,1022.21
2019-05-12T03:07:09.659Z,1022.21
2019-05-12T03:08:09.644Z,1022.25
2019-05-12T03:09:09.665Z,1022.20
2019-05-12T03:10:09.636Z,1022.26
2019-05-12T03:11:09.610Z,1022.20
2019-05-12T03:12:09.600Z,1022.25
2019-05-12T03:13:09.588Z,1022.24
2019-05-12T03:14:09.599Z,1022.23
2019-05-12T03:15:09.579Z,1022.25
2019-05-12T03:16:09.554Z,1022.27
2019-05-12T03:17:09.549Z,1022.27
2019-05-12T03:18:09.553Z,1022.26
2019-05-12T03:19:09.558Z,1022.23
2019-05-12T03:20:09.508Z,1022.26
2019-05-12T03:21:09.501Z,1022.22
2019-05-12T03:22:09.486Z,1022.22
2019-05-12T03:23:09.481Z,1022.25
2019-05-12T03:24:09.502Z,1022.24
2019-05-12T03:25:20.489Z,1022.30
2019-05-12T03:26:10.444Z,1022.28
2019-05-12T03:27:09.428Z,1022.34
2019-05-12T03:28:09.714Z,1022.30
2019-05-12T03:29:09.444Z,1022.28
2019-05-12T03:30:11.731Z,1022.29
2019-05-12T03:31:09.390Z,1022.30
2019-05-12T03:32:09.411Z,1022.37
2019-05-12T03:33:11.824Z,1022.36
2019-05-12T03:34:11.574Z,1022.36
2019-05-12T03:35:09.671Z,1022.39
2019-05-12T03:36:10.304Z,1022.43
2019-05-12T03:37:09.333Z,1022.44
2019-05-12T03:38:09.308Z,1022.46
2019-05-12T03:39:09.366Z,1022.48
2019-05-12T03:40:09.320Z,1022.42
2019-05-12T03:41:09.319Z,1022.45
2019-05-12T03:42:09.262Z,1022.46
2019-05-12T03:43:09.261Z,1022.44
2019-05-12T03:44:09.237Z,1022.45
2019-05-12T03:45:09.253Z,1022.41
2019-05-12T03:46:09.213Z,1022.48
2019-05-12T03:47:09.204Z,1022.46
2019-05-12T03:48:09.206Z,1022.51
2019-05-12T03:49:09.182Z,1022.48
2019-05-12T03:50:09.211Z,1022.51
2019-05-12T03:51:09.160Z,1022.54
2019-05-12T03:52:09.146Z,1022.55
2019-05-12T03:53:11.052Z,1022.65
2019-05-12T03:54:09.121Z,1022.59
2019-05-12T03:55:29.713Z,1022.64
2019-05-12T03:56:10.114Z,1022.62
2019-05-12T03:57:09.089Z,1022.70
2019-05-12T03:58:09.073Z,1022.72
2019-05-12T03:59:09.064Z,1022.71
2019-05-12T04:00:09.090Z,1022.78
2019-05-12T04:01:09.055Z,1022.78
2019-05-12T04:02:09.039Z,1022.78
2019-05-12T04:03:09.018Z,1022.77
2019-05-12T04:04:09.019Z,1022.76
2019-05-12T04:05:09.021Z,1022.78
2019-05-12T04:06:08.985Z,1022.80
2019-05-12T04:07:08.973Z,1022.81
2019-05-12T04:08:08.971Z,1022.85
2019-05-12T04:09:08.953Z,1022.85
2019-05-12T04:10:08.963Z,1022.87
2019-05-12T04:11:08.959Z,1022.95
2019-05-12T04:12:08.961Z,1022.94
2019-05-12T04:13:08.907Z,1022.97
2019-05-12T04:14:08.894Z,1022.97
2019-05-12T04:15:08.907Z,1022.98
2019-05-12T04:16:08.876Z,1022.98
2019-05-12T04:17:08.859Z,1023.04
2019-05-12T04:18:08.850Z,1023.01
2019-05-12T04:19:08.851Z,1023.01
2019-05-12T04:20:08.828Z,1023.05
2019-05-12T04:21:08.840Z,1023.10
2019-05-12T04:22:08.804Z,1023.06
2019-05-12T04:23:08.799Z,1023.11
2019-05-12T04:24:08.778Z,1023.12
2019-05-12T04:25:08.789Z,1023.13
2019-05-12T04:26:13.305Z,1023.16
2019-05-12T04:27:09.751Z,1023.17
2019-05-12T04:28:08.736Z,1023.12
2019-05-12T04:29:08.734Z,1023.21
2019-05-12T04:30:08.717Z,1023.26
2019-05-12T04:31:08.726Z,1023.25
2019-05-12T04:32:08.699Z,1023.28
2019-05-12T04:33:08.686Z,1023.30
2019-05-12T04:34:08.665Z,1023.31
2019-05-12T04:35:08.670Z,1023.37
2019-05-12T04:36:08.676Z,1023.39
2019-05-12T04:37:08.631Z,1023.40
2019-05-12T04:38:08.620Z,1023.47
2019-05-12T04:39:08.611Z,1023.46
2019-05-12T04:40:08.604Z,1023.51
2019-05-12T04:41:08.670Z,1023.49
2019-05-12T04:42:08.589Z,1023.52
2019-05-12T04:43:08.578Z,1023.50
2019-05-12T04:44:08.559Z,1023.56
2019-05-12T04:45:08.579Z,1023.54
2019-05-12T04:46:08.556Z,1023.61
2019-05-12T04:47:08.523Z,1023.65
2019-05-12T04:48:08.509Z,1023.64
2019-05-12T04:49:08.509Z,1023.67
2019-05-12T04:50:08.492Z,1023.70
2019-05-12T04:51:08.507Z,1023.72
2019-05-12T04:52:08.495Z,1023.72
2019-05-12T04:53:08.462Z,1023.70
2019-05-12T04:54:08.452Z,1023.83
2019-05-12T04:55:08.435Z,1023.80
2019-05-12T04:56:16.855Z,1023.86
2019-05-12T04:57:09.408Z,1023.90
2019-05-12T04:58:08.408Z,1023.90
2019-05-12T04:59:08.410Z,1023.91
2019-05-12T05:00:08.387Z,1023.94
2019-05-12T05:01:08.392Z,1023.91
2019-05-12T05:02:08.359Z,1023.90
2019-05-12T05:03:08.357Z,1023.92
2019-05-12T05:04:08.337Z,1023.89
2019-05-12T05:05:08.324Z,1023.93
2019-05-12T05:06:08.334Z,1023.97
2019-05-12T05:07:08.305Z,1024.01
2019-05-12T05:08:08.296Z,1024.02
2019-05-12T05:09:08.278Z,1024.05
2019-05-12T05:10:08.262Z,1024.05
2019-05-12T05:11:08.257Z,1024.06
2019-05-12T05:12:08.314Z,1024.10
2019-05-12T05:13:08.231Z,1024.09
2019-05-12T05:14:08.219Z,1024.09
2019-05-12T05:15:08.212Z,1024.16
2019-05-12T05:16:08.203Z,1024.15
2019-05-12T05:17:08.224Z,1024.19
2019-05-12T05:18:08.178Z,1024.18
2019-05-12T05:19:08.164Z,1024.23
2019-05-12T05:20:08.154Z,1024.25
2019-05-12T05:21:08.143Z,1024.30
2019-05-12T05:22:08.167Z,1024.36
2019-05-12T05:23:08.120Z,1024.32
2019-05-12T05:24:08.112Z,1024.31
2019-05-12T05:25:08.108Z,1024.32
2019-05-12T05:26:21.022Z,1024.34
2019-05-12T05:27:09.102Z,1024.34
2019-05-12T05:28:08.065Z,1024.38
2019-05-12T05:29:08.055Z,1024.38
2019-05-12T05:30:08.044Z,1024.40
2019-05-12T05:31:08.029Z,1024.38
2019-05-12T05:32:08.048Z,1024.42
2019-05-12T05:33:08.017Z,1024.43
2019-05-12T05:34:08.010Z,1024.43
2019-05-12T05:35:08.049Z,1024.42
2019-05-12T05:36:08.909Z,1024.46
2019-05-12T05:37:08.994Z,1024.41
2019-05-12T05:38:10.848Z,1024.46
2019-05-12T05:39:08.939Z,1024.48
2019-05-12T05:40:07.940Z,1024.47
2019-05-12T05:41:10.425Z,1024.50
2019-05-12T05:42:07.912Z,1024.54
2019-05-12T05:43:18.660Z,1024.53
2019-05-12T05:44:08.889Z,1024.56
2019-05-12T05:45:09.895Z,1024.58
2019-05-12T05:46:08.871Z,1024.59
2019-05-12T05:47:07.854Z,1024.62
2019-05-12T05:48:10.239Z,1024.66
2019-05-12T05:49:07.832Z,1024.62
2019-05-12T05:50:07.821Z,1024.72
2019-05-12T05:51:09.203Z,1024.74
2019-05-12T05:52:07.811Z,1024.72
2019-05-12T05:53:09.102Z,1024.73
2019-05-12T05:54:08.778Z,1024.78
2019-05-12T05:55:14.773Z,1024.77
2019-05-12T05:56:08.752Z,1024.81
2019-05-12T05:57:07.754Z,1024.81
2019-05-12T05:58:10.322Z,1024.82
2019-05-12T05:59:07.720Z,1024.87
2019-05-12T06:00:17.333Z,1024.91
2019-05-12T06:01:08.697Z,1024.87
2019-05-12T06:02:07.696Z,1024.92
2019-05-12T06:03:14.601Z,1024.96
2019-05-12T06:04:08.921Z,1024.92
2019-05-12T06:05:07.652Z,1024.97
2019-05-12T06:06:12.176Z,1025.00
2019-05-12T06:07:08.632Z,1025.01
2019-05-12T06:08:09.660Z,1025.03
2019-05-12T06:09:08.611Z,1025.00
2019-05-12T06:10:07.601Z,1025.02
2019-05-12T06:11:08.629Z,1025.00
2019-05-12T06:12:09.753Z,1025.04
2019-05-12T06:13:07.598Z,1025.01
2019-05-12T06:14:11.337Z,1025.02
2019-05-12T06:15:09.100Z,1024.98
2019-05-12T06:16:11.737Z,1024.99
2019-05-12T06:17:08.524Z,1024.95
2019-05-12T06:18:07.542Z,1025.00
2019-05-12T06:19:07.506Z,1025.00
2019-05-12T06:20:07.496Z,1025.09
2019-05-12T06:21:07.476Z,1025.10
2019-05-12T06:22:08.942Z,1025.15
2019-05-12T06:23:08.465Z,1025.09
2019-05-12T06:24:08.631Z,1025.13
2019-05-12T06:25:08.460Z,1025.06
2019-05-12T06:26:07.441Z,1025.02
2019-05-12T06:27:15.146Z,1025.04
2019-05-12T06:28:09.238Z,1025.05
2019-05-12T06:29:11.268Z,1025.00
2019-05-12T06:30:08.391Z,1025.04
2019-05-12T06:31:07.369Z,1025.10
2019-05-12T06:32:10.817Z,1025.09
2019-05-12T06:33:07.343Z,1025.17
2019-05-12T06:34:15.329Z,1025.12
2019-05-12T06:35:08.319Z,1025.13
2019-05-12T06:36:07.597Z,1025.14
2019-05-12T06:37:11.876Z,1025.14
2019-05-12T06:38:08.303Z,1025.16
2019-05-12T06:39:10.396Z,1025.17
2019-05-12T06:40:08.265Z,1025.17
2019-05-12T06:41:12.432Z,1025.19
2019-05-12T06:42:14.486Z,1025.21
2019-05-12T06:43:08.230Z,1025.23
2019-05-12T06:44:08.740Z,1025.23
2019-05-12T06:45:08.210Z,1025.28
2019-05-12T06:46:07.195Z,1025.29
2019-05-12T06:47:08.410Z,1025.24
2019-05-12T06:48:07.175Z,1025.31
2019-05-12T06:49:12.890Z,1025.31
2019-05-12T06:50:08.165Z,1025.33
2019-05-12T06:51:09.075Z,1025.37
2019-05-12T06:52:08.132Z,1025.41
2019-05-12T06:53:07.132Z,1025.42
2019-05-12T06:54:11.786Z,1025.42
2019-05-12T06:55:08.095Z,1025.49
2019-05-12T06:56:09.340Z,1025.45
2019-05-12T06:57:21.026Z,1025.49
2019-05-12T06:58:08.064Z,1025.48
2019-05-12T06:59:10.346Z,1025.52
2019-05-12T07:00:07.045Z,1025.52
2019-05-12T07:01:10.472Z,1025.51
2019-05-12T07:02:08.018Z,1025.50
2019-05-12T07:03:07.011Z,1025.50
2019-05-12T07:04:10.018Z,1025.53
2019-05-12T07:05:07.011Z,1025.56
2019-05-12T07:06:09.063Z,1025.59
2019-05-12T07:07:07.962Z,1025.55
2019-05-12T07:08:06.954Z,1025.62
2019-05-12T07:09:10.011Z,1025.62
2019-05-12T07:10:13.215Z,1025.58
2019-05-12T07:11:07.918Z,1025.63
2019-05-12T07:12:07.376Z,1025.62
2019-05-12T07:13:06.997Z,1025.68
2019-05-12T07:14:13.171Z,1025.61
2019-05-12T07:15:07.902Z,1025.63
2019-05-12T07:16:10.138Z,1025.61
2019-05-12T07:17:07.859Z,1025.66
2019-05-12T07:18:06.840Z,1025.62
2019-05-12T07:19:16.114Z,1025.62
2019-05-12T07:20:07.817Z,1025.65
2019-05-12T07:21:09.333Z,1025.70
2019-05-12T07:22:18.107Z,1025.66
2019-05-12T07:23:07.783Z,1025.65
2019-05-12T07:24:11.049Z,1025.64
2019-05-12T07:25:08.354Z,1025.68
2019-05-12T07:26:17.223Z,1025.66
2019-05-12T07:27:09.354Z,1025.74
2019-05-12T07:28:08.095Z,1025.77
2019-05-12T07:29:06.720Z,1025.75
2019-05-12T07:30:06.735Z,1025.69
2019-05-12T07:31:06.703Z,1025.71
2019-05-12T07:32:15.153Z,1025.63
2019-05-12T07:33:07.680Z,1025.73
2019-05-12T07:34:07.793Z,1025.68
2019-05-12T07:35:06.673Z,1025.73
2019-05-12T07:36:06.649Z,1025.75
2019-05-12T07:37:06.631Z,1025.78
2019-05-12T07:38:06.617Z,1025.72
2019-05-12T07:39:08.411Z,1025.72
2019-05-12T07:40:06.619Z,1025.81
2019-05-12T07:41:10.524Z,1025.85
2019-05-12T07:42:06.571Z,1025.91
2019-05-12T07:43:09.876Z,1025.82
2019-05-12T07:44:07.547Z,1025.85
2019-05-12T07:45:11.392Z,1025.88
2019-05-12T07:46:07.568Z,1025.86
2019-05-12T07:47:06.524Z,1025.86
2019-05-12T07:48:10.194Z,1025.87
2019-05-12T07:49:06.496Z,1025.91
2019-05-12T07:50:09.968Z,1025.86
2019-05-12T07:51:07.497Z,1025.88
2019-05-12T07:52:06.461Z,1025.84
2019-05-12T07:53:06.449Z,1025.85
2019-05-12T07:54:06.451Z,1025.89
2019-05-12T07:55:06.428Z,1025.84
2019-05-12T07:56:06.441Z,1025.80
2019-05-12T07:57:12.074Z,1025.81
2019-05-12T07:58:14.010Z,1025.79
2019-05-12T07:59:07.410Z,1025.83
2019-05-12T08:00:11.369Z,1025.77
2019-05-12T08:01:08.131Z,1025.75
2019-05-12T08:02:06.351Z,1025.75
2019-05-12T08:03:16.123Z,1025.80
2019-05-12T08:04:07.326Z,1025.77
2019-05-12T08:05:10.973Z,1025.81
2019-05-12T08:06:07.329Z,1025.90
2019-05-12T08:07:06.298Z,1025.80
2019-05-12T08:08:10.484Z,1025.84
2019-05-12T08:09:06.284Z,1025.86
2019-05-12T08:10:07.340Z,1025.95
2019-05-12T08:11:07.272Z,1025.93
2019-05-12T08:12:09.758Z,1026.04
2019-05-12T08:13:07.224Z,1025.93
2019-05-12T08:14:06.214Z,1025.87
2019-05-12T08:15:09.562Z,1025.88
2019-05-12T08:16:06.256Z,1025.81
2019-05-12T08:17:12.090Z,1025.84
2019-05-12T08:18:08.067Z,1025.89
2019-05-12T08:19:08.373Z,1025.93
2019-05-12T08:20:06.170Z,1025.89
2019-05-12T08:21:06.140Z,1025.91
2019-05-12T08:22:06.150Z,1025.88
2019-05-12T08:23:10.434Z,1025.90
2019-05-12T08:24:06.104Z,1025.92
2019-05-12T08:25:06.091Z,1025.97
2019-05-12T08:26:12.437Z,1025.89
2019-05-12T08:27:07.092Z,1025.91
2019-05-12T08:28:14.857Z,1025.90
2019-05-12T08:29:10.394Z,1025.94
2019-05-12T08:30:07.037Z,1025.98
2019-05-12T08:31:06.032Z,1025.92
2019-05-12T08:32:09.777Z,1025.95
2019-05-12T08:33:09.650Z,1026.05
2019-05-12T08:34:05.991Z,1025.96
2019-05-12T08:35:05.981Z,1026.05
2019-05-12T08:36:11.271Z,1025.99
2019-05-12T08:37:06.983Z,1025.98
2019-05-12T08:38:05.945Z,1026.06
2019-05-12T08:39:11.347Z,1025.98
2019-05-12T08:40:07.670Z,1025.96
2019-05-12T08:41:05.912Z,1026.07
2019-05-12T08:42:05.927Z,1026.04
2019-05-12T08:43:10.225Z,1026.10
2019-05-12T08:44:05.888Z,1026.04
2019-05-12T08:45:08.232Z,1026.02
2019-05-12T08:46:11.937Z,1026.02
2019-05-12T08:47:06.886Z,1026.10
2019-05-12T08:48:10.136Z,1026.03
2019-05-12T08:49:06.826Z,1026.01
2019-05-12T08:50:05.811Z,1026.01
2019-05-12T08:51:13.917Z,1026.02
2019-05-12T08:52:06.817Z,1026.01
2019-05-12T08:53:05.795Z,1026.06
2019-05-12T08:54:08.158Z,1026.09
2019-05-12T08:55:05.760Z,1026.14
2019-05-12T08:56:12.871Z,1026.08
2019-05-12T08:57:06.762Z,1026.16
2019-05-12T08:58:05.727Z,1026.11
2019-05-12T08:59:09.597Z,1026.15
2019-05-12T09:00:08.560Z,1026.12
2019-05-12T09:01:05.707Z,1026.08
2019-05-12T09:02:10.366Z,1026.18
2019-05-12T09:03:06.667Z,1026.18
2019-05-12T09:04:10.542Z,1026.18
2019-05-12T09:05:06.681Z,1026.13
2019-05-12T09:06:09.144Z,1026.15
2019-05-12T09:07:06.646Z,1026.11
2019-05-12T09:08:05.720Z,1026.10
2019-05-12T09:09:05.611Z,1026.10
2019-05-12T09:10:05.587Z,1026.17
2019-05-12T09:11:05.578Z,1026.12
2019-05-12T09:12:05.634Z,1026.13
2019-05-12T09:13:05.595Z,1026.12
2019-05-12T09:14:05.937Z,1026.16
2019-05-12T09:15:07.874Z,1026.23
2019-05-12T09:16:05.523Z,1026.12
2019-05-12T09:17:07.247Z,1026.19
2019-05-12T09:18:05.529Z,1026.19
2019-05-12T09:19:10.134Z,1026.25
2019-05-12T09:20:08.381Z,1026.17
2019-05-12T09:21:05.481Z,1026.19
2019-05-12T09:22:16.124Z,1026.17
2019-05-12T09:23:06.469Z,1026.18
2019-05-12T09:24:05.438Z,1026.21
2019-05-12T09:25:08.287Z,1026.25
2019-05-12T09:26:05.408Z,1026.21
2019-05-12T09:27:08.884Z,1026.18
2019-05-12T09:28:05.418Z,1026.18
2019-05-12T09:29:07.393Z,1026.24
2019-05-12T09:30:09.520Z,1026.18
2019-05-12T09:31:05.355Z,1026.17
2019-05-12T09:32:09.455Z,1026.20
2019-05-12T09:33:05.378Z,1026.21
2019-05-12T09:34:11.798Z,1026.19
2019-05-12T09:35:06.311Z,1026.19
2019-05-12T09:36:05.299Z,1026.20
2019-05-12T09:37:05.291Z,1026.30
2019-05-12T09:38:06.105Z,1026.30
2019-05-12T09:39:05.882Z,1026.26
2019-05-12T09:40:05.257Z,1026.27
2019-05-12T09:41:05.518Z,1026.23
2019-05-12T09:42:05.230Z,1026.29
2019-05-12T09:43:09.256Z,1026.24
2019-05-12T09:44:06.210Z,1026.21
2019-05-12T09:45:09.950Z,1026.26
2019-05-12T09:46:06.188Z,1026.25
2019-05-12T09:47:12.761Z,1026.29
2019-05-12T09:48:09.078Z,1026.26
2019-05-12T09:49:05.157Z,1026.37
2019-05-12T09:50:09.609Z,1026.30
2019-05-12T09:51:08.039Z,1026.30
2019-05-12T09:52:05.126Z,1026.35
2019-05-12T09:53:09.396Z,1026.29
2019-05-12T09:54:06.112Z,1026.34
2019-05-12T09:55:05.089Z,1026.30
2019-05-12T09:56:05.077Z,1026.31
2019-05-12T09:57:05.069Z,1026.30
2019-05-12T09:58:05.080Z,1026.38
2019-05-12T09:59:17.216Z,1026.31
2019-05-12T10:00:06.038Z,1026.36
2019-05-12T10:01:05.019Z,1026.35
2019-05-12T10:02:05.114Z,1026.28
2019-05-12T10:03:08.438Z,1026.41
2019-05-12T10:04:04.990Z,1026.38
2019-05-12T10:05:04.976Z,1026.36
2019-05-12T10:06:04.963Z,1026.39
2019-05-12T10:07:04.956Z,1026.41
2019-05-12T10:08:04.972Z,1026.46
2019-05-12T10:09:08.888Z,1026.49
2019-05-12T10:10:05.972Z,1026.51
2019-05-12T10:11:04.915Z,1026.46
2019-05-12T10:12:05.580Z,1026.46
2019-05-12T10:13:05.057Z,1026.46
2019-05-12T10:14:06.604Z,1026.53
2019-05-12T10:15:05.860Z,1026.41
2019-05-12T10:16:08.714Z,1026.46
2019-05-12T10:17:04.881Z,1026.47
2019-05-12T10:18:10.862Z,1026.43
2019-05-12T10:19:05.842Z,1026.42
2019-05-12T10:20:04.806Z,1026.51
2019-05-12T10:21:04.808Z,1026.42
2019-05-12T10:22:04.807Z,1026.48
2019-05-12T10:23:04.787Z,1026.57
2019-05-12T10:24:05.146Z,1026.53
2019-05-12T10:25:04.762Z,1026.54
2019-05-12T10:26:09.923Z,1026.59
2019-05-12T10:27:05.739Z,1026.52
2019-05-12T10:28:11.362Z,1026.52
2019-05-12T10:29:16.860Z,1026.53
2019-05-12T10:30:12.224Z,1026.53
2019-05-12T10:31:05.696Z,1026.59
2019-05-12T10:32:04.676Z,1026.54
2019-05-12T10:33:04.679Z,1026.48
2019-05-12T10:34:04.681Z,1026.47
2019-05-12T10:35:04.641Z,1026.53
2019-05-12T10:36:08.423Z,1026.54
2019-05-12T10:37:04.619Z,1026.62
2019-05-12T10:38:09.346Z,1026.59
2019-05-12T10:39:05.635Z,1026.61
2019-05-12T10:40:04.584Z,1026.56
2019-05-12T10:41:04.574Z,1026.55
2019-05-12T10:42:04.560Z,1026.58
2019-05-12T10:43:04.937Z,1026.53
2019-05-12T10:44:04.608Z,1026.54
2019-05-12T10:45:04.533Z,1026.54
2019-05-12T10:46:04.520Z,1026.53
2019-05-12T10:47:04.687Z,1026.60
2019-05-12T10:48:04.527Z,1026.59
2019-05-12T10:49:04.511Z,1026.58
2019-05-12T10:50:04.473Z,1026.54
2019-05-12T10:51:04.468Z,1026.62
2019-05-12T10:52:04.450Z,1026.54
2019-05-12T10:53:04.846Z,1026.43
2019-05-12T10:54:11.574Z,1026.47
2019-05-12T10:55:05.423Z,1026.53
2019-05-12T10:56:04.423Z,1026.52
2019-05-12T10:57:04.973Z,1026.50
2019-05-12T10:58:07.075Z,1026.52
2019-05-12T10:59:04.416Z,1026.50
2019-05-12T11:00:04.532Z,1026.58
2019-05-12T11:01:08.452Z,1026.55
2019-05-12T11:02:04.342Z,1026.57
2019-05-12T11:03:10.808Z,1026.57
2019-05-12T11:04:05.317Z,1026.56
2019-05-12T11:05:04.360Z,1026.64
2019-05-12T11:06:07.487Z,1026.54
2019-05-12T11:07:04.767Z,1026.44
2019-05-12T11:08:09.433Z,1026.38
2019-05-12T11:09:05.300Z,1026.53
2019-05-12T11:10:15.314Z,1026.50
2019-05-12T11:11:05.253Z,1026.53
2019-05-12T11:12:04.224Z,1026.51
2019-05-12T11:13:08.438Z,1026.58
2019-05-12T11:14:05.267Z,1026.62
2019-05-12T11:15:06.762Z,1026.60
2019-05-12T11:16:04.185Z,1026.62
2019-05-12T11:17:07.696Z,1026.54
2019-05-12T11:18:04.157Z,1026.45
2019-05-12T11:19:08.788Z,1026.52
2019-05-12T11:20:05.526Z,1026.55
2019-05-12T11:21:04.136Z,1026.52
2019-05-12T11:22:04.112Z,1026.52
2019-05-12T11:23:04.106Z,1026.36
2019-05-12T11:24:04.092Z,1026.45
2019-05-12T11:25:04.444Z,1026.42
2019-05-12T11:26:04.104Z,1026.38
2019-05-12T11:27:04.250Z,1026.50
2019-05-12T11:28:04.050Z,1026.46
2019-05-12T11:29:04.035Z,1026.55
2019-05-12T11:30:04.383Z,1026.51
2019-05-12T11:31:04.027Z,1026.61
2019-05-12T11:32:04.002Z,1026.64
2019-05-12T11:33:04.519Z,1026.60
2019-05-12T11:34:04.835Z,1026.60
2019-05-12T11:35:04.217Z,1026.53
2019-05-12T11:36:04.370Z,1026.47
2019-05-12T11:37:03.980Z,1026.60
2019-05-12T11:38:04.738Z,1026.58
2019-05-12T11:39:03.935Z,1026.56
2019-05-12T11:40:04.380Z,1026.50
2019-05-12T11:41:04.311Z,1026.52
2019-05-12T11:42:04.379Z,1026.56
2019-05-12T11:43:04.480Z,1026.63
2019-05-12T11:44:04.055Z,1026.56
2019-05-12T11:45:03.869Z,1026.61
2019-05-12T11:46:03.928Z,1026.61
2019-05-12T11:47:03.908Z,1026.64
2019-05-12T11:48:09.548Z,1026.56
2019-05-12T11:49:04.815Z,1026.47
2019-05-12T11:50:08.030Z,1026.61
2019-05-12T11:51:04.818Z,1026.53
2019-05-12T11:52:09.188Z,1026.60
2019-05-12T11:53:04.778Z,1026.60
2019-05-12T11:54:08.910Z,1026.64
2019-05-12T11:55:04.744Z,1026.45
2019-05-12T11:56:07.842Z,1026.61
2019-05-12T11:57:04.724Z,1026.66
2019-05-12T11:58:09.104Z,1026.61
2019-05-12T11:59:04.732Z,1026.57
2019-05-12T12:00:05.424Z,1026.53
2019-05-12T12:01:07.867Z,1026.55
2019-05-12T12:02:03.686Z,1026.55
2019-05-12T12:03:12.339Z,1026.54
2019-05-12T12:04:04.649Z,1026.62
2019-05-12T12:05:03.633Z,1026.69